Time;durP1;ratioP1;P1;durP2;ratioP2;P2;SDS_P1;SDS_P2;PMS_P1;PMS_P2;Temp;Humidity;BMP_temperature;BMP_pressure;BME280_temperature;BME280_humidity;BME280_pressure;Samples;Min_cycle;Max_cycle;Signal;HPM_P1;HPM_P2
2022/07/09 00:01:24;;;;;;;6.35;4.10;;;23.70;77.50;;;;;;5013899;28;20030;-73
2022/07/09 00:03:51;;;;;;;3.85;3.45;;;23.60;77.50;;;;;;5013649;28;20022;-73
2022/07/09 00:06:18;;;;;;;6.50;3.83;;;23.60;77.50;;;;;;5013714;28;20022;-73
2022/07/09 00:08:43;;;;;;;5.95;4.68;;;23.60;77.50;;;;;;5013533;28;20097;-73
2022/07/09 00:11:09;;;;;;;4.07;3.33;;;23.60;77.50;;;;;;5013605;28;20108;-73
2022/07/09 00:13:35;;;;;;;4.82;4.28;;;23.60;77.50;;;;;;5012961;28;20032;-73
2022/07/09 00:16:00;;;;;;;7.00;4.68;;;23.60;77.70;;;;;;5013742;28;20101;-73
2022/07/09 00:18:26;;;;;;;6.95;4.30;;;23.60;78.30;;;;;;5013413;28;20487;-73
2022/07/09 00:20:54;;;;;;;6.03;4.57;;;23.60;77.80;;;;;;5013484;28;20026;-73
2022/07/09 00:23:20;;;;;;;6.07;4.40;;;23.50;77.80;;;;;;5005673;28;20093;-74
2022/07/09 00:25:46;;;;;;;5.28;4.28;;;23.60;77.90;;;;;;5013504;28;20468;-74
2022/07/09 00:28:11;;;;;;;7.28;4.22;;;23.60;77.90;;;;;;5013127;28;20100;-73
2022/07/09 00:30:37;;;;;;;6.38;4.85;;;23.60;77.80;;;;;;4995740;28;20052;-73
2022/07/09 00:33:03;;;;;;;5.63;4.50;;;23.50;77.80;;;;;;5013284;28;20022;-73
2022/07/09 00:35:28;;;;;;;5.97;3.90;;;23.50;77.80;;;;;;5013214;28;20499;-74
2022/07/09 00:37:54;;;;;;;7.97;5.28;;;23.60;77.90;;;;;;5013424;28;20050;-74
2022/07/09 00:40:20;;;;;;;7.05;5.03;;;23.50;78.10;;;;;;5012738;28;20041;-73
2022/07/09 00:42:45;;;;;;;4.85;4.35;;;23.50;78.10;;;;;;5013289;28;20025;-73
2022/07/09 00:45:11;;;;;;;7.80;5.78;;;23.40;78.20;;;;;;5013276;28;20034;-73
2022/07/09 00:47:36;;;;;;;7.43;5.22;;;23.40;78.30;;;;;;5013364;28;20518;-72
2022/07/09 00:50:03;;;;;;;5.88;5.00;;;23.40;78.80;;;;;;5013135;28;20045;-73
2022/07/09 00:52:31;;;;;;;6.63;4.97;;;23.40;79.00;;;;;;4995388;28;20461;-73
2022/07/09 00:55:00;;;;;;;7.10;4.00;;;23.40;79.20;;;;;;5013136;28;20036;-73
2022/07/09 00:57:25;;;;;;;5.40;4.90;;;23.40;79.40;;;;;;5013464;28;20175;-72
2022/07/09 00:59:51;;;;;;;7.68;4.63;;;23.40;79.60;;;;;;5014065;28;20138;-73
2022/07/09 01:02:21;;;;;;;8.95;5.72;;;23.40;79.60;;;;;;5018390;28;20033;-72
2022/07/09 01:04:47;;;;;;;6.72;4.97;;;23.30;79.80;;;;;;5016717;28;20022;-73
2022/07/09 01:07:12;;;;;;;9.73;5.28;;;23.30;79.70;;;;;;5017256;28;20391;-73
2022/07/09 01:09:38;;;;;;;8.40;5.97;;;23.40;79.90;;;;;;5016435;28;20100;-73
2022/07/09 01:12:05;;;;;;;7.20;5.18;;;23.40;80.20;;;;;;4999116;28;20101;-73
2022/07/09 01:14:30;;;;;;;6.20;5.05;;;23.30;79.80;;;;;;5016577;28;20038;-72
2022/07/09 01:17:01;;;;;;;8.98;5.68;;;23.30;79.80;;;;;;5016702;28;20018;-73
2022/07/09 01:19:28;;;;;;;8.18;6.00;;;23.30;80.00;;;;;;5016552;28;20376;-72
2022/07/09 01:21:54;;;;;;;7.03;5.00;;;23.30;80.30;;;;;;5016750;28;20022;-72
2022/07/09 01:24:21;;;;;;;5.03;4.28;;;23.30;80.10;;;;;;5016394;28;20030;-73
2022/07/09 01:26:47;;;;;;;7.15;4.80;;;23.30;80.10;;;;;;5016582;28;20379;-72
2022/07/09 01:29:12;;;;;;;5.63;4.95;;;23.30;80.10;;;;;;5015195;28;20034;-72
2022/07/09 01:31:38;;;;;;;7.22;4.50;;;23.20;80.00;;;;;;5016239;28;20022;-72
2022/07/09 01:34:04;;;;;;;6.53;4.82;;;23.30;80.00;;;;;;5016563;28;20352;-73
2022/07/09 01:36:29;;;;;;;7.35;5.07;;;23.30;80.10;;;;;;5016356;28;20096;-73
2022/07/09 01:38:55;;;;;;;6.53;4.93;;;23.20;80.00;;;;;;5016248;28;20061;-72
2022/07/09 01:41:20;;;;;;;5.57;4.38;;;23.20;80.20;;;;;;5016586;28;20030;-73
2022/07/09 01:43:46;;;;;;;12.23;5.22;;;23.20;80.40;;;;;;5015935;28;20491;-72
2022/07/09 01:46:11;;;;;;;8.20;5.22;;;23.20;80.40;;;;;;5016194;28;20559;-72
2022/07/09 01:48:38;;;;;;;6.05;5.13;;;23.20;80.20;;;;;;5016127;28;20026;-72
2022/07/09 01:51:04;;;;;;;7.70;4.95;;;23.20;80.50;;;;;;5016335;28;20049;-73
2022/07/09 01:53:30;;;;;;;7.43;5.35;;;23.20;80.70;;;;;;5015795;28;20467;-73
2022/07/09 01:55:55;;;;;;;7.07;5.50;;;23.20;81.20;;;;;;5014893;28;20102;-72
2022/07/09 01:58:21;;;;;;;10.45;5.20;;;23.20;80.80;;;;;;5015537;28;20041;-72
2022/07/09 02:00:46;;;;;;;7.72;5.97;;;23.20;80.80;;;;;;5014640;28;20044;-72
2022/07/09 02:03:12;;;;;;;6.97;5.70;;;23.20;80.70;;;;;;5015264;28;20022;-72
2022/07/09 02:05:38;;;;;;;6.72;4.90;;;23.20;80.90;;;;;;5015752;28;20036;-72
2022/07/09 02:08:03;;;;;;;6.93;5.57;;;23.10;81.00;;;;;;5015792;28;20025;-72
2022/07/09 02:10:30;;;;;;;6.40;5.65;;;23.10;81.00;;;;;;5015587;28;20061;-72
2022/07/09 02:12:55;;;;;;;9.00;5.97;;;23.10;80.90;;;;;;5015207;28;20021;-72
2022/07/09 02:15:21;;;;;;;7.00;6.30;;;23.10;81.00;;;;;;5015655;28;20053;-73
2022/07/09 02:17:47;;;;;;;5.88;5.28;;;23.10;81.10;;;;;;5016255;28;20045;-72
2022/07/09 02:20:13;;;;;;;7.35;6.65;;;23.10;81.40;;;;;;5015460;28;20483;-72
2022/07/09 02:22:38;;;;;;;7.68;6.63;;;23.10;81.30;;;;;;5015183;28;20089;-72
2022/07/09 02:25:05;;;;;;;8.05;7.35;;;23.10;81.10;;;;;;5015465;28;20057;-73
2022/07/09 02:27:31;;;;;;;11.40;8.45;;;23.10;81.00;;;;;;4997686;28;20479;-72
2022/07/09 02:29:56;;;;;;;10.10;9.10;;;23.10;81.00;;;;;;5015254;28;20029;-73
2022/07/09 02:32:22;;;;;;;7.43;6.63;;;23.10;81.10;;;;;;5015527;28;20349;-72
2022/07/09 02:34:47;;;;;;;11.18;8.35;;;23.10;81.00;;;;;;5015322;28;20042;-72
2022/07/09 02:37:13;;;;;;;9.55;7.47;;;23.10;81.30;;;;;;5015105;28;20041;-72
2022/07/09 02:39:39;;;;;;;11.52;10.35;;;23.10;81.20;;;;;;5015522;28;20026;-73
2022/07/09 02:42:05;;;;;;;9.13;8.23;;;23.10;81.40;;;;;;5015255;28;20022;-72
2022/07/09 02:44:30;;;;;;;8.30;7.05;;;23.10;81.40;;;;;;5015175;28;20030;-73
2022/07/09 02:46:56;;;;;;;9.73;7.63;;;23.10;81.40;;;;;;5015239;28;20467;-73
2022/07/09 02:49:23;;;;;;;10.98;9.48;;;23.10;81.40;;;;;;5015122;28;20497;-73
2022/07/09 02:51:48;;;;;;;10.88;9.18;;;23.10;81.50;;;;;;5014377;28;20034;-73
2022/07/09 02:54:14;;;;;;;13.13;10.80;;;23.10;81.50;;;;;;5015069;28;20081;-72
2022/07/09 02:56:39;;;;;;;9.60;8.65;;;23.10;81.50;;;;;;5014883;28;20460;-73
2022/07/09 02:59:05;;;;;;;9.18;8.27;;;23.10;81.60;;;;;;5014840;28;20033;-73
2022/07/09 03:01:31;;;;;;;10.55;8.77;;;23.00;81.60;;;;;;5014789;28;20033;-72
2022/07/09 03:03:56;;;;;;;10.60;9.27;;;23.00;81.70;;;;;;5014952;28;20028;-73
2022/07/09 03:06:22;;;;;;;11.43;10.25;;;23.00;81.50;;;;;;5016846;28;20026;-72
2022/07/09 03:08:48;;;;;;;9.88;8.98;;;23.00;81.40;;;;;;5017735;28;20533;-72
2022/07/09 03:11:14;;;;;;;11.55;10.40;;;23.00;81.60;;;;;;5017963;28;20030;-72
2022/07/09 03:13:39;;;;;;;12.82;11.52;;;23.00;81.70;;;;;;5016123;28;20526;-72
2022/07/09 03:16:06;;;;;;;10.65;9.65;;;23.00;81.80;;;;;;5014763;28;20036;-72
2022/07/09 03:18:33;;;;;;;11.70;10.50;;;23.00;81.80;;;;;;5014530;28;20091;-72
2022/07/09 03:20:58;;;;;;;12.40;11.20;;;23.00;81.70;;;;;;5014203;28;20041;-72
2022/07/09 03:23:24;;;;;;;11.18;9.85;;;23.00;81.80;;;;;;5013628;28;20025;-72
2022/07/09 03:25:49;;;;;;;11.50;10.40;;;23.00;81.80;;;;;;4996547;28;20025;-72
2022/07/09 03:28:15;;;;;;;9.35;8.45;;;23.00;81.70;;;;;;5014109;28;20025;-72
2022/07/09 03:30:40;;;;;;;11.68;10.00;;;23.00;81.70;;;;;;5014459;28;20056;-72
2022/07/09 03:33:06;;;;;;;10.80;9.73;;;23.00;81.60;;;;;;5014297;28;20134;-72
2022/07/09 03:35:32;;;;;;;14.50;11.93;;;23.00;81.70;;;;;;5013860;28;20034;-72
2022/07/09 03:37:57;;;;;;;13.55;11.98;;;23.00;81.60;;;;;;5014021;28;20101;-72
2022/07/09 03:40:23;;;;;;;10.80;9.70;;;23.00;81.60;;;;;;4996647;28;20025;-72
2022/07/09 03:42:48;;;;;;;11.45;10.27;;;22.90;81.80;;;;;;5013870;28;20034;-72
2022/07/09 03:45:14;;;;;;;10.20;8.75;;;22.90;81.70;;;;;;5014879;28;20026;-72
2022/07/09 03:47:40;;;;;;;9.00;8.10;;;23.00;81.70;;;;;;5014236;28;20033;-72
2022/07/09 03:50:06;;;;;;;12.10;9.82;;;22.90;81.80;;;;;;5013723;28;20030;-72
2022/07/09 03:52:32;;;;;;;11.75;10.55;;;22.90;81.90;;;;;;5013789;28;20018;-72
2022/07/09 03:54:57;;;;;;;9.05;8.15;;;22.90;81.90;;;;;;5013852;28;20411;-72
2022/07/09 03:57:23;;;;;;;11.48;10.38;;;22.90;81.90;;;;;;5013663;28;20467;-72
2022/07/09 03:59:48;;;;;;;8.77;7.80;;;22.90;81.90;;;;;;5014037;28;20542;-72
2022/07/09 04:02:14;;;;;;;10.52;8.32;;;22.90;81.90;;;;;;5013772;28;20056;-72
2022/07/09 04:04:41;;;;;;;13.07;11.48;;;22.90;82.00;;;;;;5013186;28;20029;-72
2022/07/09 04:07:06;;;;;;;12.07;10.40;;;22.90;82.20;;;;;;5013743;28;20061;-72
2022/07/09 04:09:32;;;;;;;12.38;11.00;;;22.80;82.10;;;;;;5013795;28;20049;-72
2022/07/09 04:11:57;;;;;;;12.88;10.75;;;22.90;82.20;;;;;;5013860;28;20116;-72
2022/07/09 04:14:23;;;;;;;11.80;10.52;;;22.90;82.80;;;;;;5013596;28;20033;-72
2022/07/09 04:16:48;;;;;;;8.60;7.80;;;22.80;82.20;;;;;;5013525;28;20042;-72
2022/07/09 04:19:14;;;;;;;9.82;8.63;;;22.90;82.20;;;;;;5013228;28;20021;-72
2022/07/09 04:21:39;;;;;;;10.57;9.13;;;22.80;82.20;;;;;;5013482;28;20030;-73
2022/07/09 04:24:05;;;;;;;11.93;10.52;;;22.80;82.30;;;;;;5013433;28;20022;-72
2022/07/09 04:26:31;;;;;;;12.98;11.43;;;22.80;82.40;;;;;;5013464;28;20530;-72
2022/07/09 04:28:56;;;;;;;9.65;8.57;;;22.80;82.20;;;;;;5013277;28;20018;-72
2022/07/09 04:31:22;;;;;;;13.32;11.85;;;22.80;82.40;;;;;;5012166;28;20037;-73
2022/07/09 04:33:48;;;;;;;10.88;9.68;;;22.90;82.50;;;;;;5012586;28;20022;-73
2022/07/09 04:36:13;;;;;;;12.27;9.82;;;22.90;82.50;;;;;;5013391;28;20376;-73
2022/07/09 04:38:39;;;;;;;11.75;10.60;;;22.80;82.40;;;;;;5013172;28;20486;-73
2022/07/09 04:41:05;;;;;;;12.30;11.10;;;22.80;82.50;;;;;;5013063;28;20030;-73
2022/07/09 04:43:31;;;;;;;12.55;11.13;;;22.80;82.70;;;;;;5013172;28;20026;-73
2022/07/09 04:45:57;;;;;;;12.85;9.75;;;22.80;82.50;;;;;;5013089;28;20018;-73
2022/07/09 04:48:22;;;;;;;12.75;11.40;;;22.80;82.40;;;;;;5013171;28;20018;-73
2022/07/09 04:50:48;;;;;;;13.55;12.25;;;22.80;82.60;;;;;;5011840;28;20505;-73
2022/07/09 04:53:14;;;;;;;11.70;10.50;;;22.80;82.50;;;;;;5013244;28;20022;-72
2022/07/09 04:55:40;;;;;;;12.95;10.82;;;22.80;82.60;;;;;;5012988;28;20029;-72
2022/07/09 04:58:05;;;;;;;14.13;12.63;;;22.80;82.50;;;;;;5012976;28;20022;-73
2022/07/09 05:00:33;;;;;;;13.30;10.73;;;22.80;82.50;;;;;;5012326;28;20051;-73
2022/07/09 05:02:58;;;;;;;8.55;6.75;;;22.80;82.40;;;;;;5011911;28;20128;-73
2022/07/09 05:05:25;;;;;;;12.52;10.75;;;22.90;82.20;;;;;;5012207;28;20049;-72
2022/07/09 05:07:51;;;;;;;12.68;11.38;;;22.80;82.10;;;;;;5011087;28;20053;-72
2022/07/09 05:10:17;;;;;;;13.88;11.85;;;22.80;82.70;;;;;;5011798;28;20034;-72
2022/07/09 05:12:43;;;;;;;7.55;6.85;;;22.80;82.30;;;;;;5013035;28;20033;-72
2022/07/09 05:15:09;;;;;;;12.80;10.50;;;22.90;82.40;;;;;;5012945;28;20034;-72
2022/07/09 05:17:36;;;;;;;12.00;10.88;;;22.80;82.70;;;;;;5012755;28;20368;-72
2022/07/09 05:20:04;;;;;;;8.77;7.88;;;22.90;82.60;;;;;;5012913;28;20037;-72
2022/07/09 05:22:34;;;;;;;11.93;9.75;;;22.90;82.30;;;;;;5013407;28;20472;-72
2022/07/09 05:24:59;;;;;;;13.77;10.40;;;22.80;82.30;;;;;;5013148;28;20479;-72
2022/07/09 05:27:26;;;;;;;13.65;11.15;;;22.90;82.40;;;;;;5013125;28;20025;-72
2022/07/09 05:29:52;;;;;;;12.15;10.30;;;22.90;82.40;;;;;;4995136;28;20490;-72
2022/07/09 05:32:18;;;;;;;11.70;10.50;;;22.90;82.50;;;;;;5012682;28;20025;-72
2022/07/09 05:34:43;;;;;;;10.80;8.23;;;22.90;82.40;;;;;;5012660;28;20042;-72
2022/07/09 05:37:09;;;;;;;10.35;8.70;;;22.90;82.50;;;;;;5012989;28;20026;-72
2022/07/09 05:39:34;;;;;;;9.30;8.40;;;22.80;82.10;;;;;;5012586;28;20029;-72
2022/07/09 05:42:00;;;;;;;10.02;8.63;;;22.90;82.90;;;;;;5012979;28;20029;-72
2022/07/09 05:44:25;;;;;;;9.18;8.00;;;22.90;82.50;;;;;;5012650;28;20042;-72
2022/07/09 05:46:51;;;;;;;10.07;7.68;;;22.90;82.40;;;;;;5013548;28;20479;-72
2022/07/09 05:49:17;;;;;;;11.23;9.95;;;22.90;82.50;;;;;;4998804;28;20534;-72
2022/07/09 05:51:42;;;;;;;10.15;9.10;;;22.90;82.70;;;;;;5016036;28;20383;-72
2022/07/09 05:54:08;;;;;;;8.63;6.75;;;22.90;82.40;;;;;;5016122;28;20026;-72
2022/07/09 05:56:34;;;;;;;4.55;4.15;;;22.90;82.60;;;;;;5016112;28;20034;-72
2022/07/09 05:59:00;;;;;;;7.60;6.35;;;22.80;82.00;;;;;;5015821;28;20010;-72
2022/07/09 06:01:25;;;;;;;8.50;6.05;;;22.90;82.00;;;;;;5015606;28;20029;-72
2022/07/09 06:03:51;;;;;;;8.05;6.03;;;22.90;82.70;;;;;;5015985;28;20026;-72
2022/07/09 06:06:16;;;;;;;6.95;6.07;;;22.90;82.30;;;;;;5015860;28;20033;-72
2022/07/09 06:08:42;;;;;;;5.25;4.03;;;22.90;82.40;;;;;;5015906;28;20490;-72
2022/07/09 06:11:07;;;;;;;8.23;7.10;;;22.90;81.80;;;;;;5015703;28;20443;-72
2022/07/09 06:13:33;;;;;;;6.68;5.35;;;23.00;82.60;;;;;;4998130;28;20479;-72
2022/07/09 06:15:59;;;;;;;7.10;4.60;;;22.90;82.20;;;;;;5015356;28;20092;-72
2022/07/09 06:18:24;;;;;;;6.38;5.30;;;22.90;81.40;;;;;;5015845;28;20475;-72
2022/07/09 06:20:50;;;;;;;8.00;6.47;;;23.00;81.40;;;;;;5015708;28;20062;-72
2022/07/09 06:23:15;;;;;;;7.05;5.60;;;23.10;81.30;;;;;;4998180;28;20475;-72
2022/07/09 06:25:41;;;;;;;4.40;3.60;;;23.10;81.20;;;;;;5015687;28;20029;-72
2022/07/09 06:28:07;;;;;;;6.00;5.05;;;23.10;80.80;;;;;;5015530;28;20538;-72
2022/07/09 06:30:36;;;;;;;6.10;5.50;;;23.10;81.20;;;;;;5015316;28;20106;-72
2022/07/09 06:33:02;;;;;;;4.53;4.13;;;23.10;81.00;;;;;;5015404;28;20030;-72
2022/07/09 06:35:27;;;;;;;6.07;4.68;;;23.10;80.90;;;;;;5015480;28;20038;-72
2022/07/09 06:37:53;;;;;;;9.55;6.85;;;23.10;81.30;;;;;;5015177;28;20017;-72
2022/07/09 06:40:19;;;;;;;4.90;4.40;;;23.00;81.50;;;;;;5016076;28;20084;-73
2022/07/09 06:42:44;;;;;;;11.93;7.43;;;23.00;81.10;;;;;;5015465;28;20030;-72
2022/07/09 06:45:10;;;;;;;6.40;4.50;;;23.10;81.50;;;;;;5015264;28;20040;-72
2022/07/09 06:47:36;;;;;;;9.30;6.28;;;23.10;80.80;;;;;;5015066;28;20026;-72
2022/07/09 06:50:02;;;;;;;5.28;4.68;;;23.10;81.20;;;;;;5015017;28;20022;-72
2022/07/09 06:52:28;;;;;;;8.50;7.20;;;23.10;80.90;;;;;;5015076;28;20025;-73
2022/07/09 06:54:54;;;;;;;10.85;8.40;;;23.10;82.10;;;;;;5014819;28;20038;-72
2022/07/09 06:57:20;;;;;;;8.73;7.00;;;23.00;82.00;;;;;;5014766;28;20018;-72
2022/07/09 06:59:46;;;;;;;7.55;6.25;;;23.10;81.80;;;;;;5014626;28;20471;-73
2022/07/09 07:02:12;;;;;;;8.27;7.53;;;23.10;81.50;;;;;;5014754;28;20050;-72
2022/07/09 07:04:38;;;;;;;15.60;9.70;;;23.00;81.80;;;;;;5014842;28;20491;-72
2022/07/09 07:07:04;;;;;;;12.23;10.80;;;23.00;82.40;;;;;;5014544;28;20050;-72
2022/07/09 07:09:30;;;;;;;7.93;6.60;;;23.10;83.00;;;;;;5014797;28;20022;-72
2022/07/09 07:11:55;;;;;;;10.35;7.20;;;23.10;81.90;;;;;;5014050;28;20030;-72
2022/07/09 07:14:21;;;;;;;10.60;8.57;;;23.10;82.60;;;;;;5014531;28;20481;-72
2022/07/09 07:16:47;;;;;;;7.57;6.90;;;23.10;83.60;;;;;;5014532;28;20032;-72
2022/07/09 07:19:12;;;;;;;11.45;8.18;;;23.10;83.60;;;;;;4996739;28;20018;-72
2022/07/09 07:21:38;;;;;;;12.07;10.38;;;23.10;83.10;;;;;;5014635;28;20372;-72
2022/07/09 07:24:05;;;;;;;11.70;10.07;;;23.10;83.50;;;;;;5014694;28;20097;-72
2022/07/09 07:26:31;;;;;;;10.18;8.43;;;23.10;83.40;;;;;;5014074;28;20018;-72
2022/07/09 07:28:57;;;;;;;13.52;9.65;;;23.10;83.40;;;;;;5014182;28;20032;-72
2022/07/09 07:31:24;;;;;;;9.95;8.95;;;23.20;83.10;;;;;;5014490;28;20018;-72
2022/07/09 07:33:50;;;;;;;9.23;8.00;;;23.20;83.50;;;;;;5014195;28;20422;-72
2022/07/09 07:36:15;;;;;;;11.15;8.30;;;23.20;83.30;;;;;;5014141;28;20118;-72
2022/07/09 07:38:41;;;;;;;9.02;7.05;;;23.20;83.50;;;;;;5014225;28;20026;-72
2022/07/09 07:41:06;;;;;;;6.40;5.57;;;23.20;84.00;;;;;;5013768;28;20581;-72
2022/07/09 07:43:32;;;;;;;6.45;5.72;;;23.20;82.70;;;;;;5013988;28;20030;-72
2022/07/09 07:45:58;;;;;;;5.75;5.13;;;23.30;82.70;;;;;;5013998;28;20475;-72
2022/07/09 07:48:23;;;;;;;9.05;7.35;;;23.30;82.10;;;;;;5013913;28;20026;-72
2022/07/09 07:50:49;;;;;;;8.80;6.70;;;23.30;82.90;;;;;;5014037;28;20415;-72
2022/07/09 07:53:14;;;;;;;6.97;6.13;;;23.40;81.60;;;;;;5014109;28;20081;-72
2022/07/09 07:55:40;;;;;;;7.35;5.43;;;23.40;81.30;;;;;;5013523;28;20041;-72
2022/07/09 07:58:05;;;;;;;6.45;5.68;;;23.40;82.10;;;;;;5014006;28;20026;-72
2022/07/09 08:00:31;;;;;;;7.55;4.95;;;23.50;81.40;;;;;;5014581;28;20045;-72
2022/07/09 08:02:57;;;;;;;6.07;4.75;;;23.50;81.20;;;;;;5013861;28;20033;-72
2022/07/09 08:05:22;;;;;;;6.05;5.28;;;23.50;81.50;;;;;;5013901;28;20029;-72
2022/07/09 08:07:48;;;;;;;5.95;4.82;;;23.60;81.10;;;;;;5013608;28;20018;-72
2022/07/09 08:10:14;;;;;;;5.85;4.53;;;23.60;80.60;;;;;;5012794;28;20124;-72
2022/07/09 08:12:39;;;;;;;5.28;4.78;;;23.60;80.60;;;;;;5013574;28;20030;-72
2022/07/09 08:15:05;;;;;;;4.32;3.75;;;23.60;80.10;;;;;;5013484;28;20076;-72
2022/07/09 08:17:31;;;;;;;4.95;4.22;;;23.70;80.00;;;;;;5013629;28;20045;-72
2022/07/09 08:19:56;;;;;;;5.85;3.60;;;23.70;79.80;;;;;;5013262;28;20440;-72
2022/07/09 08:22:22;;;;;;;5.85;4.05;;;23.70;80.00;;;;;;5013550;28;20379;-72
2022/07/09 08:24:47;;;;;;;4.57;3.17;;;23.70;80.00;;;;;;5013310;28;20030;-73
2022/07/09 08:27:13;;;;;;;4.63;3.17;;;23.80;79.50;;;;;;5013574;28;20506;-72
2022/07/09 08:29:38;;;;;;;4.95;3.30;;;23.70;79.20;;;;;;5013085;28;20395;-72
2022/07/09 08:32:05;;;;;;;3.78;2.83;;;23.80;79.40;;;;;;5013583;28;20034;-72
2022/07/09 08:34:30;;;;;;;3.58;3.20;;;23.80;78.70;;;;;;5013157;28;20033;-72
2022/07/09 08:36:56;;;;;;;3.60;3.05;;;23.80;79.10;;;;;;5013478;28;20022;-72
2022/07/09 08:39:22;;;;;;;4.32;3.55;;;23.90;78.70;;;;;;5012997;28;20476;-73
2022/07/09 08:41:47;;;;;;;4.82;3.92;;;23.90;78.90;;;;;;4995671;28;20121;-73
2022/07/09 08:44:13;;;;;;;3.90;2.70;;;23.90;78.90;;;;;;5013002;28;20034;-72
2022/07/09 08:46:39;;;;;;;4.57;4.10;;;23.90;78.60;;;;;;5013480;28;20499;-72
2022/07/09 08:49:10;;;;;;;3.00;2.60;;;23.90;78.40;;;;;;5013032;28;20022;-72
2022/07/09 08:51:39;;;;;;;4.50;2.38;;;23.90;78.20;;;;;;5013373;28;20030;-72
2022/07/09 08:54:06;;;;;;;3.33;2.67;;;23.90;78.00;;;;;;5012853;28;20088;-72
2022/07/09 08:56:32;;;;;;;4.00;2.42;;;23.90;78.10;;;;;;5013271;28;20033;-73
2022/07/09 08:58:58;;;;;;;3.10;2.53;;;24.00;78.10;;;;;;5012918;28;20399;-72
2022/07/09 09:01:25;;;;;;;4.28;2.88;;;23.90;78.00;;;;;;5013038;28;20030;-72
2022/07/09 09:03:51;;;;;;;3.95;2.33;;;23.90;78.30;;;;;;5013239;28;20081;-72
2022/07/09 09:06:21;;;;;;;3.00;2.30;;;23.90;78.00;;;;;;5013141;28;20026;-72
2022/07/09 09:08:47;;;;;;;3.58;2.28;;;24.00;78.00;;;;;;5012934;28;20125;-72
2022/07/09 09:11:22;;;;;;;3.88;2.28;;;24.00;78.00;;;;;;5013016;28;20066;-72
2022/07/09 09:13:48;;;;;;;2.90;1.80;;;24.00;77.90;;;;;;5013048;28;20026;-72
2022/07/09 09:16:16;;;;;;;3.97;1.80;;;24.00;77.80;;;;;;5012999;28;20515;-73
2022/07/09 09:18:44;;;;;;;2.97;1.90;;;24.00;77.80;;;;;;5012947;28;20014;-72
2022/07/09 09:21:10;;;;;;;2.22;1.52;;;24.00;77.80;;;;;;5012972;28;20529;-72
2022/07/09 09:23:43;;;;;;;1.98;1.73;;;24.00;77.70;;;;;;5016691;28;20475;-73
2022/07/09 09:26:20;;;;;;;2.47;1.77;;;24.00;77.60;;;;;;5016636;28;20034;-72
2022/07/09 09:28:54;;;;;;;1.88;1.60;;;24.10;77.70;;;;;;5016678;28;20029;-72
2022/07/09 09:31:33;;;;;;;2.45;1.75;;;24.00;77.70;;;;;;5016227;28;20356;-72
2022/07/09 09:34:04;;;;;;;2.15;1.30;;;24.10;77.70;;;;;;4998841;28;20124;-72
2022/07/09 09:36:31;;;;;;;2.15;1.40;;;24.00;77.50;;;;;;5016570;28;20052;-72
2022/07/09 09:39:10;;;;;;;2.38;1.50;;;24.10;77.90;;;;;;5016243;28;20014;-73
2022/07/09 09:41:36;;;;;;;1.98;1.67;;;24.10;77.50;;;;;;5016329;28;20390;-72
2022/07/09 09:44:09;;;;;;;1.90;1.40;;;24.10;77.30;;;;;;5016200;28;20550;-73
2022/07/09 09:46:36;;;;;;;3.45;1.77;;;24.10;77.20;;;;;;5016273;28;20030;-73
2022/07/09 09:49:06;;;;;;;3.00;1.67;;;24.10;77.30;;;;;;5016175;28;20049;-72
2022/07/09 09:51:36;;;;;;;2.10;1.50;;;24.10;77.10;;;;;;5015731;28;20056;-73
2022/07/09 09:54:03;;;;;;;1.85;1.35;;;24.10;77.20;;;;;;5016204;28;20097;-72
2022/07/09 09:56:29;;;;;;;2.22;1.50;;;24.10;77.00;;;;;;5016082;28;20025;-72
2022/07/09 09:58:56;;;;;;;1.55;1.35;;;24.10;77.00;;;;;;5016118;28;20045;-73
2022/07/09 10:01:22;;;;;;;1.50;1.40;;;24.10;77.10;;;;;;4998290;28;20455;-72
2022/07/09 10:03:49;;;;;;;3.72;1.80;;;24.10;77.20;;;;;;5015976;28;20468;-72
2022/07/09 10:06:14;;;;;;;2.15;1.65;;;24.10;77.00;;;;;;5015532;28;20026;-73
2022/07/09 10:08:40;;;;;;;1.65;1.30;;;24.20;76.90;;;;;;5015996;28;20113;-72
2022/07/09 10:11:05;;;;;;;2.40;1.50;;;24.20;76.80;;;;;;5015664;28;20037;-72
2022/07/09 10:13:31;;;;;;;2.30;1.50;;;24.20;76.90;;;;;;5015615;28;20490;-72
2022/07/09 10:15:57;;;;;;;2.40;1.52;;;24.20;77.10;;;;;;5015488;28;20048;-73
2022/07/09 10:18:23;;;;;;;2.10;1.42;;;24.20;76.80;;;;;;5015692;28;20117;-72
2022/07/09 10:20:56;;;;;;;2.75;1.33;;;24.20;76.80;;;;;;5015320;28;20106;-72
2022/07/09 10:23:23;;;;;;;2.10;1.10;;;24.20;76.70;;;;;;5015959;28;20379;-72
2022/07/09 10:25:55;;;;;;;2.20;1.38;;;24.20;76.70;;;;;;5016120;28;20014;-72
2022/07/09 10:28:22;;;;;;;1.48;1.10;;;24.20;76.60;;;;;;5015784;28;20030;-73
2022/07/09 10:30:48;;;;;;;2.88;1.23;;;24.30;76.60;;;;;;4997982;28;20060;-73
2022/07/09 10:33:29;;;;;;;1.85;1.10;;;24.30;76.60;;;;;;5014913;28;20030;-73
2022/07/09 10:35:54;;;;;;;1.83;1.30;;;24.30;76.50;;;;;;5014783;28;20365;-72
2022/07/09 10:38:22;;;;;;;2.33;1.38;;;24.20;76.40;;;;;;5015418;28;20530;-73
2022/07/09 10:40:59;;;;;;;1.27;1.00;;;24.20;76.40;;;;;;5015154;28;20033;-72
2022/07/09 10:43:45;;;;;;;2.65;1.42;;;24.20;76.40;;;;;;5015203;28;20034;-72
2022/07/09 10:46:12;;;;;;;2.28;1.00;;;24.30;76.50;;;;;;5015106;28;20022;-72
2022/07/09 10:48:37;;;;;;;1.25;0.77;;;24.30;76.40;;;;;;5015217;28;20105;-72
2022/07/09 10:51:03;;;;;;;1.10;0.95;;;24.40;76.50;;;;;;5015096;28;20109;-72
2022/07/09 10:53:29;;;;;;;2.83;1.30;;;24.40;76.20;;;;;;5015070;28;20117;-72
2022/07/09 10:55:55;;;;;;;1.67;1.13;;;24.30;76.20;;;;;;5014756;28;20434;-73
2022/07/09 10:58:24;;;;;;;3.47;1.30;;;24.30;76.30;;;;;;5014817;28;20030;-73
2022/07/09 11:01:00;;;;;;;1.75;1.02;;;24.30;76.30;;;;;;5015139;28;20037;-73
2022/07/09 11:03:32;;;;;;;2.75;1.20;;;24.40;76.30;;;;;;5014791;28;20081;-73
2022/07/09 11:05:58;;;;;;;1.60;0.98;;;24.30;76.20;;;;;;5014503;28;20025;-73
2022/07/09 11:08:24;;;;;;;2.22;1.00;;;24.40;76.30;;;;;;5014570;28;20490;-73
2022/07/09 11:10:50;;;;;;;1.58;0.93;;;24.40;76.20;;;;;;5014918;28;20045;-73
2022/07/09 11:13:15;;;;;;;1.75;0.95;;;24.40;76.10;;;;;;5014368;28;20025;-73
2022/07/09 11:15:41;;;;;;;1.42;1.00;;;24.30;76.10;;;;;;5014526;28;20086;-72
2022/07/09 11:18:08;;;;;;;1.80;0.95;;;24.40;76.10;;;;;;5014628;28;20109;-72
2022/07/09 11:20:45;;;;;;;2.47;0.90;;;24.40;76.00;;;;;;5014340;28;20022;-73
2022/07/09 11:23:15;;;;;;;2.08;0.98;;;24.40;76.00;;;;;;5014431;28;20014;-72
2022/07/09 11:25:41;;;;;;;3.08;0.90;;;24.40;75.90;;;;;;5014223;28;20392;-72
2022/07/09 11:28:08;;;;;;;2.22;1.00;;;24.40;76.00;;;;;;5014409;28;20049;-73
2022/07/09 11:30:33;;;;;;;1.80;0.95;;;24.40;76.00;;;;;;5014455;28;20022;-72
2022/07/09 11:33:00;;;;;;;2.97;1.10;;;24.40;76.10;;;;;;5013948;28;20154;-73
2022/07/09 11:35:26;;;;;;;1.92;1.00;;;24.40;75.90;;;;;;5014172;28;20535;-72
2022/07/09 11:37:52;;;;;;;1.20;0.85;;;24.40;75.80;;;;;;4996547;28;20033;-72
2022/07/09 11:40:19;;;;;;;1.23;0.80;;;24.40;75.70;;;;;;5014365;28;20034;-72
2022/07/09 11:42:45;;;;;;;1.38;0.90;;;24.40;75.70;;;;;;5013987;28;20037;-72
2022/07/09 11:45:11;;;;;;;1.63;0.85;;;24.40;75.70;;;;;;5013936;28;20081;-72
2022/07/09 11:47:41;;;;;;;1.08;0.93;;;24.40;75.60;;;;;;5014041;28;20026;-72
2022/07/09 11:50:12;;;;;;;1.95;1.00;;;24.50;75.40;;;;;;5014017;28;20022;-72
2022/07/09 11:52:47;;;;;;;1.25;0.80;;;24.50;75.20;;;;;;5013834;28;20178;-72
2022/07/09 11:55:18;;;;;;;1.50;0.70;;;24.50;75.30;;;;;;5013856;28;20037;-72
2022/07/09 11:58:19;;;;;;;1.73;0.93;;;24.50;75.10;;;;;;5013742;28;20032;-72
2022/07/09 12:00:44;;;;;;;0.80;0.63;;;24.50;75.10;;;;;;5009756;28;20038;-72
2022/07/09 12:03:10;;;;;;;2.22;0.80;;;24.50;75.10;;;;;;5013504;28;20040;-72
2022/07/09 12:05:37;;;;;;;1.83;0.80;;;24.50;74.40;;;;;;5013774;28;20077;-72
2022/07/09 12:08:05;;;;;;;1.10;0.80;;;24.50;74.90;;;;;;5013615;28;20022;-72
2022/07/09 12:10:32;;;;;;;1.50;0.93;;;24.50;74.70;;;;;;5013672;28;20030;-72
2022/07/09 12:12:59;;;;;;;0.90;0.68;;;24.60;74.50;;;;;;5013464;28;20383;-73
2022/07/09 12:15:26;;;;;;;1.10;0.55;;;24.50;74.70;;;;;;5013386;28;20124;-72
2022/07/09 12:17:56;;;;;;;1.38;0.73;;;24.50;73.80;;;;;;5013266;28;20033;-72
2022/07/09 12:20:30;;;;;;;1.42;0.70;;;24.50;74.00;;;;;;4995842;28;20029;-72
2022/07/09 12:22:56;;;;;;;1.05;0.93;;;24.50;73.30;;;;;;5013543;28;20472;-72
2022/07/09 12:25:22;;;;;;;1.65;0.73;;;24.50;74.80;;;;;;5013234;28;20045;-72
2022/07/09 12:27:51;;;;;;;0.90;0.60;;;24.50;73.90;;;;;;5013209;28;20045;-72
2022/07/09 12:30:17;;;;;;;2.35;0.80;;;24.50;74.40;;;;;;5013452;28;20100;-72
2022/07/09 12:32:44;;;;;;;1.17;0.60;;;24.50;74.30;;;;;;5013119;28;20105;-72
2022/07/09 12:35:10;;;;;;;1.77;0.55;;;24.60;74.10;;;;;;5013219;28;20089;-72
2022/07/09 12:37:37;;;;;;;1.42;0.50;;;24.50;73.70;;;;;;5013178;28;20026;-72
2022/07/09 12:40:04;;;;;;;1.00;0.60;;;24.50;73.80;;;;;;5013006;28;20065;-72